• Join FlightAware (Why Join?)
  • Login
  • US Flag 
Trick or treat! (Boo!!) 
11:51AM EDT


 

Airport Tracker/Info


-or-


 

Live Flight TrackerFlight Track Log ✈ FLG4262 ✈ 21-Sep-2013 ✈ KDTW - KBGM

Flight Track Log - Related Links

Times and Time Zones

All times are in EDT time to prevent confusion due to time zone crossing. See the FLG4262 flight status page for this flight to view local times or setup timezone preferences in your user account.

Time Position Orientation Groundspeed Altitude Reporting Facility
EDT Latitude Longitude Course Direction KTS MPH feet Rate Location/Type
04:15PM 42.2328 -83.3483 37° Northeast 173 199 1,400  Level Cleveland Center
04:16PM 42.2736 -83.3061 37° Northeast 208 239 3,300 1,560 Climbing Cleveland Center
04:16PM 42.2981 -83.2797 39° Northeast 215 247 3,900 2,040 Climbing Cleveland Center
04:17PM 42.3303 -83.2519 33° Northeast 269 310 5,400 3,240 Climbing Cleveland Center
04:17PM 42.3656 -83.2114 40° Northeast 266 306 7,300 2,940 Climbing Cleveland Center
04:18PM 42.3722 -83.1675 78° East 287 330 8,400 1,920 Climbing Cleveland Center
04:18PM 42.3764 -83.0936 86° East 292 336 9,300 900 Climbing Cleveland Center
04:19PM 42.3656 -82.9786 97° East 305 351 10,000 480 Climbing Cleveland Center
04:20PM 42.3531 -82.8522 98° East 333 383 10,400 960 Climbing Cleveland Center
04:21PM 42.3406 -82.7111 97° East 369 425 12,000 1,560 Climbing Cleveland Center
04:22PM 42.3478 -82.5672 86° East 386 444 13,700 1,740 Climbing Cleveland Center
04:23PM 42.3667 -82.4264 80° East 384 442 15,700 1,740 Climbing Cleveland Center
04:24PM 42.3592 -82.2817 94° East 386 444 17,300 1,740 Climbing Cleveland Center
04:25PM 42.3531 -82.1083 93° East 393 452 19,300 1,620 Climbing Cleveland Center
04:27PM 42.3472 -81.9597 93° East 393 452 20,700 1,140 Climbing Cleveland Center
04:28PM 42.3408 -81.8081 93° East 398 458 21,700 960 Climbing Cleveland Center
04:29PM 42.3331 -81.6533 94° East 406 467 22,700 960 Climbing Cleveland Center
04:30PM 42.3267 -81.4964 93° East 412 474 23,800 1,020 Climbing Cleveland Center
04:31PM 42.3192 -81.3378 94° East 418 481 24,800 540 Climbing Cleveland Center
04:32PM 42.3111 -81.1767 94° East 423 487 25,000 60 Climbing Cleveland Center
04:33PM 42.3017 -81.0069 94° East 443 510 25,000  Level Cleveland Center
04:34PM 42.2925 -80.8289 94° East 463 533 25,000  Level Cleveland Center
04:35PM 42.2844 -80.6517 93° East 467 537 25,000  Level Cleveland Center
04:36PM 42.2747 -80.4733 94° East 470 541 25,000  Level Cleveland Center
04:37PM 42.2625 -80.2675 95° East 467 537 25,000  Level Cleveland Center
04:38PM 42.2522 -80.0944 95° East 460 529 25,000  Level Cleveland Center
04:39PM 42.2428 -79.9344 95° East 450 518 25,000  Level Cleveland Center
04:40PM 42.2314 -79.7725 95° East 439 505 25,000  Level Cleveland Center
04:41PM 42.2217 -79.6119 95° East 434 499 25,000  Level Cleveland Center
04:42PM 42.2092 -79.4211 95° East 430 495 25,000  Level Cleveland Center
04:43PM 42.1983 -79.2631 95° East 426 490 25,000  Level Cleveland Center
04:44PM 42.1883 -79.1033 95° East 428 493 25,000  Level Cleveland Center
04:45PM 42.1914 -78.9414 88° East 434 499 25,000  Level Cleveland Center
04:46PM 42.1947 -78.7692 88° East 435 501 25,000 -120 Level Cleveland Center
04:47PM 42.1972 -78.6072 89° East 435 501 24,800 -900 Descending Cleveland Center
04:48PM 42.2000 -78.4400 89° East 444 511 23,200 -1,500 Descending Cleveland Center
04:49PM 42.2017 -78.2686 89° East 456 525 21,700 -1,500 Descending Cleveland Center
04:50PM 42.2044 -78.0986 89° East 458 527 20,200 -1,320 Descending Cleveland Center
04:51PM 42.2069 -77.8961 89° East 456 525 19,000 -1,020 Descending Cleveland Center
04:53PM 42.2097 -77.5803 89° East 424 488 17,100 -660 Descending Cleveland Center
04:54PM 42.2106 -77.4303 90° East 407 468 17,000 -60 Descending Cleveland Center
04:55PM 42.2108 -77.2872 90° East 389 448 17,000  Level Cleveland Center
04:56PM 42.2114 -77.1417 90° East 391 450 17,000 -360 Level Cleveland Center
04:57PM 42.2111 -77.0142 90° East 385 443 16,400 -1,740 Descending New York Center
04:58PM 42.2114 -76.8492 90° East 392 451 13,900 -2,100 Descending New York Center
04:59PM 42.2094 -76.7200 91° East 371 427 12,300 -1,800 Descending New York Center
05:00PM 42.2153 -76.6058 86° East 336 387 10,300 -2,040 Descending New York Center
05:01PM 42.2417 -76.4906 73° East 319 367 8,300 -2,100 Descending New York Center
05:02PM 42.2636 -76.3775 75° East 313 360 6,200 -1,920 Descending New York Center
05:03PM 42.2875 -76.2703 73° East 307 353 4,500 -1,500 Descending New York Center
05:04PM 42.3081 -76.1794 73° East 279 321 3,300 -600 Descending New York Center
05:05PM 42.3136 -76.1042 84° East 231 266 3,400  Climbing New York Center
05:06PM 42.2911 -76.0519 120° Southeast 168 193 3,300 -360 Descending New York Center
05:07PM 42.2569 -76.0239 149° Southeast 151 174 2,700 -600 Descending New York Center
05:08PM 42.2350 -76.0025 144° Southeast 136 157 2,200 -540 Descending New York Center